This is the latest recevied weather packets stored in our database for station/object KC0RKM-13. If no packets are shown the sender has not sent any weather packets the latest 10 day(s).
| Time | Temp. | Humidity | Pressure | Rain* | Wind** | Luminosity | Snow |
|---|---|---|---|---|---|---|---|
| 1788334803 | 26.67° C | 58% | 1013.2 hPa | 0 mm | - | - | - |
| 1788334203 | 26.11° C | 58% | 1013.1 hPa | 0 mm | - | - | - |
| 1788333603 | 26.11° C | 60% | 1013.2 hPa | 0 mm | - | - | - |
| 1788333004 | 26.67° C | 58% | 1013.4 hPa | 0 mm | - | - | - |
| 1788332403 | 26.67° C | 60% | 1013.3 hPa | 0 mm | - | - | - |
| 1788331803 | 26.67° C | 59% | 1013.3 hPa | 0 mm | - | - | - |
| 1788331204 | 26.67° C | 60% | 1013.4 hPa | 0 mm | - | - | - |
| 1788330603 | 26.67° C | 59% | 1013.4 hPa | 0 mm | - | - | - |
| 1788330003 | 26.67° C | 60% | 1013.7 hPa | 0 mm | - | - | - |
| 1788329404 | 26.67° C | 60% | 1013.4 hPa | 0 mm | - | - | - |
| 1788328204 | 27.22° C | 57% | 1013.3 hPa | 0 mm | - | - | - |
| 1788322804 | 27.78° C | 53% | 1013.4 hPa | 0 mm | - | - | - |
| 1788298204 | 37.22° C | 30% | 1012 hPa | 0 mm | - | - | - |
| 1788297604 | 37.22° C | 30% | 1011.6 hPa | 0 mm | - | - | - |
| 1788295204 | 37.78° C | 27% | 1012.2 hPa | 0 mm | - | - | - |
| 1788294003 | 37.78° C | 28% | 1012.4 hPa | 0 mm | - | - | - |
| 1788293404 | 37.22° C | 27% | 1012.7 hPa | 0 mm | - | - | - |
| 1788289804 | 37.22° C | 31% | 1013.1 hPa | 0 mm | - | - | - |
| 1788288003 | 36.67° C | 33% | 1013.3 hPa | 0 mm | - | - | - |
| 1788287403 | 36.11° C | 33% | 1013.5 hPa | 0 mm | - | - | - |
| 1788286803 | 36.11° C | 34% | 1013.7 hPa | 0 mm | - | - | - |
| 1788286204 | 36.11° C | 34% | 1013.8 hPa | 0 mm | - | - | - |
| 1788284404 | 35.56° C | 35% | 1014.3 hPa | 0 mm | - | - | - |
| 1788283804 | 35.56° C | 36% | 1014.5 hPa | 0 mm | - | - | - |
| 1788283204 | 35° C | 36% | 1014.6 hPa | 0 mm | - | - | - |
* Rain latest hour (hover to see other rain measurements)
** Current wind speed in m/s (hover to see current wind gust speed)